Time;durP1;ratioP1;P1;durP2;ratioP2;P2;SDS_P1;SDS_P2;PMS_P1;PMS_P2;Temp;Humidity;BMP_temperature;BMP_pressure;BME280_temperature;BME280_humidity;BME280_pressure;Samples;Min_cycle;Max_cycle;Signal;HPM_P1;HPM_P2
2022/11/17 00:00:25;;;;;;;12.70;8.80;;;8.20;99.90;;;;;;5057181;28;20041;-68
2022/11/17 00:02:51;;;;;;;12.25;7.88;;;8.20;99.90;;;;;;5057228;28;20110;-68
2022/11/17 00:05:17;;;;;;;12.90;8.38;;;8.40;99.90;;;;;;5056849;28;20131;-68
2022/11/17 00:07:44;;;;;;;12.90;8.10;;;8.20;99.90;;;;;;5056742;28;20048;-68
2022/11/17 00:10:13;;;;;;;11.88;7.75;;;8.20;99.90;;;;;;5056663;28;20466;-68
2022/11/17 00:15:24;;;;;;;11.68;7.85;;;8.10;99.90;;;;;;5056310;28;20064;-68
2022/11/17 00:21:17;;;;;;;12.32;8.05;;;8.20;99.90;;;;;;5056329;28;20102;-68
2022/11/17 00:23:25;;;;;;;10.27;7.20;;;8.20;99.90;;;;;;5056582;28;20049;-69
2022/11/17 00:25:51;;;;;;;12.30;8.30;;;8.20;99.90;;;;;;5056535;28;20433;-69
2022/11/17 00:28:17;;;;;;;10.63;7.47;;;8.40;99.90;;;;;;5056504;28;20091;-69
2022/11/17 00:34:09;;;;;;;10.20;7.43;;;8.20;99.90;;;;;;5056648;28;20045;-69
2022/11/17 00:36:15;;;;;;;11.35;7.25;;;8.20;99.90;;;;;;5045665;28;20049;-69
2022/11/17 00:38:41;;;;;;;11.25;7.53;;;8.20;99.90;;;;;;5056998;28;20048;-69
2022/11/17 00:41:06;;;;;;;11.35;7.97;;;8.20;99.90;;;;;;5056184;28;20098;-68
2022/11/17 00:43:32;;;;;;;9.85;7.90;;;8.20;99.90;;;;;;5056158;28;20414;-69
2022/11/17 00:45:58;;;;;;;11.32;7.15;;;8.20;99.90;;;;;;5056002;28;20041;-68
2022/11/17 00:48:23;;;;;;;9.65;7.43;;;8.20;99.90;;;;;;5055761;28;20053;-69
2022/11/17 00:50:49;;;;;;;10.60;7.72;;;8.20;99.90;;;;;;5055972;28;20045;-69
2022/11/17 00:53:15;;;;;;;10.15;7.00;;;8.20;99.90;;;;;;5056429;28;20064;-69
2022/11/17 00:55:41;;;;;;;10.02;7.32;;;8.20;99.90;;;;;;5038068;28;20123;-69
2022/11/17 00:58:07;;;;;;;10.63;7.20;;;8.30;99.90;;;;;;5038427;28;20060;-69
2022/11/17 01:00:32;;;;;;;10.32;7.00;;;8.20;99.90;;;;;;5055803;28;20405;-69
2022/11/17 01:02:58;;;;;;;11.13;7.45;;;8.20;99.90;;;;;;5038770;28;20041;-69
2022/11/17 01:05:24;;;;;;;10.88;8.07;;;8.20;99.90;;;;;;5055713;28;20041;-69
2022/11/17 01:07:52;;;;;;;10.50;6.70;;;8.10;99.90;;;;;;5055648;28;20469;-69
2022/11/17 01:10:17;;;;;;;9.93;7.45;;;8.20;99.90;;;;;;5055747;28;20107;-69
2022/11/17 01:12:43;;;;;;;12.20;7.63;;;8.10;99.90;;;;;;5055557;28;20483;-69
2022/11/17 01:15:10;;;;;;;11.35;7.75;;;8.20;99.90;;;;;;5055767;28;20057;-69
2022/11/17 01:17:36;;;;;;;9.10;6.60;;;8.40;99.90;;;;;;5056323;28;20381;-69
2022/11/17 01:20:02;;;;;;;10.23;7.57;;;8.10;99.90;;;;;;5055732;28;20469;-69
2022/11/17 01:22:28;;;;;;;10.18;7.13;;;8.20;99.90;;;;;;5055654;28;20068;-69
2022/11/17 01:24:53;;;;;;;10.68;6.65;;;8.20;99.90;;;;;;5038519;28;20474;-68
2022/11/17 01:27:19;;;;;;;10.25;6.75;;;8.20;99.90;;;;;;5055290;28;20436;-68
2022/11/17 01:29:44;;;;;;;9.80;6.43;;;8.20;99.90;;;;;;5037773;28;20048;-69
2022/11/17 01:32:10;;;;;;;8.25;6.05;;;8.10;99.90;;;;;;5055240;28;20492;-69
2022/11/17 01:34:36;;;;;;;9.07;6.13;;;8.20;99.90;;;;;;5055102;28;20389;-69
2022/11/17 01:37:19;;;;;;;8.88;6.50;;;8.20;99.90;;;;;;5055145;28;20391;-69
2022/11/17 01:39:49;;;;;;;9.55;6.50;;;8.10;99.90;;;;;;5055946;28;20049;-69
2022/11/17 01:42:16;;;;;;;11.13;6.60;;;8.10;99.90;;;;;;5055681;28;20057;-69
2022/11/17 01:45:14;;;;;;;8.70;6.57;;;8.10;99.90;;;;;;5038170;28;20106;-69
2022/11/17 01:47:45;;;;;;;9.00;6.35;;;8.20;99.90;;;;;;5010455;28;20084;-69
2022/11/17 01:50:20;;;;;;;7.97;5.57;;;8.20;99.90;;;;;;5054804;28;20051;-69
2022/11/17 01:52:49;;;;;;;9.35;6.63;;;8.20;99.90;;;;;;5055812;28;20045;-69
2022/11/17 01:55:17;;;;;;;8.27;5.57;;;8.20;99.90;;;;;;5054427;28;20556;-69
2022/11/17 01:57:54;;;;;;;9.27;6.45;;;8.20;99.90;;;;;;5037173;28;20550;-69
2022/11/17 02:00:20;;;;;;;9.40;6.55;;;8.20;99.90;;;;;;5054645;28;20123;-69
2022/11/17 02:02:47;;;;;;;8.63;6.05;;;8.20;99.90;;;;;;5054290;28;20041;-69
2022/11/17 02:05:26;;;;;;;10.57;6.65;;;8.20;99.90;;;;;;5054919;28;20393;-69
2022/11/17 02:07:54;;;;;;;8.25;5.95;;;8.20;99.90;;;;;;5054766;28;20187;-69
2022/11/17 02:10:20;;;;;;;9.00;6.18;;;8.20;99.90;;;;;;5053827;28;20044;-69
2022/11/17 02:12:47;;;;;;;10.88;6.60;;;8.40;99.90;;;;;;5054462;28;20067;-69
2022/11/17 02:15:13;;;;;;;8.68;6.38;;;8.20;99.90;;;;;;5054187;28;20100;-69
2022/11/17 02:17:41;;;;;;;8.27;6.18;;;8.20;99.90;;;;;;5054384;28;20053;-69
2022/11/17 02:20:10;;;;;;;8.10;6.00;;;8.20;99.90;;;;;;5054503;28;20049;-69
2022/11/17 02:22:53;;;;;;;8.98;6.57;;;8.20;99.90;;;;;;5054427;28;20082;-69
2022/11/17 02:26:03;;;;;;;8.65;6.15;;;8.20;99.90;;;;;;5054806;28;20359;-69
2022/11/17 02:28:33;;;;;;;9.52;6.15;;;8.10;99.90;;;;;;4973288;28;20503;-69
2022/11/17 02:31:33;;;;;;;9.95;6.07;;;8.10;99.90;;;;;;5040257;28;20057;-69
2022/11/17 02:34:31;;;;;;;9.23;6.10;;;8.10;99.90;;;;;;5054507;28;20186;-69
2022/11/17 02:37:20;;;;;;;10.50;5.90;;;8.10;99.90;;;;;;5054856;28;20099;-69
2022/11/17 02:40:07;;;;;;;9.50;6.80;;;8.10;99.90;;;;;;5054478;28;20113;-69
2022/11/17 02:45:34;;;;;;;8.95;5.97;;;8.10;99.90;;;;;;5054442;28;20064;-69
2022/11/17 02:48:05;;;;;;;8.90;6.28;;;8.10;99.90;;;;;;5053525;28;20500;-69
2022/11/17 02:50:33;;;;;;;8.63;6.70;;;8.00;99.90;;;;;;5036465;28;20084;-69
2022/11/17 02:52:59;;;;;;;8.73;6.22;;;8.00;99.90;;;;;;5053917;28;20048;-69
2022/11/17 02:55:26;;;;;;;8.18;6.25;;;8.00;99.90;;;;;;5053630;28;20389;-69
2022/11/17 02:57:52;;;;;;;10.82;7.05;;;7.90;99.90;;;;;;5053673;28;20128;-68
2022/11/17 03:00:19;;;;;;;8.20;6.22;;;7.90;99.90;;;;;;5054152;28;20140;-68
2022/11/17 03:03:26;;;;;;;8.35;6.35;;;7.90;99.90;;;;;;5053573;28;20053;-69
2022/11/17 03:06:03;;;;;;;8.23;5.43;;;7.90;99.90;;;;;;5042793;28;20052;-69
2022/11/17 03:08:54;;;;;;;7.75;5.85;;;8.10;99.90;;;;;;5053759;28;20116;-69
2022/11/17 03:11:28;;;;;;;9.52;6.60;;;7.90;99.90;;;;;;5053434;28;20045;-69
2022/11/17 03:14:14;;;;;;;8.77;6.28;;;8.30;99.90;;;;;;5053253;28;20512;-69
2022/11/17 03:16:52;;;;;;;9.17;6.23;;;7.90;99.90;;;;;;5031911;28;20108;-69
2022/11/17 03:19:43;;;;;;;8.48;6.00;;;7.80;99.90;;;;;;5033838;28;20053;-69
2022/11/17 03:22:23;;;;;;;8.75;5.75;;;7.90;99.90;;;;;;5026402;28;20057;-69
2022/11/17 03:24:52;;;;;;;7.78;5.15;;;7.80;99.90;;;;;;5033903;28;20084;-69
2022/11/17 03:27:27;;;;;;;8.45;6.00;;;7.80;99.90;;;;;;5033279;28;20449;-69
2022/11/17 03:30:01;;;;;;;8.32;5.75;;;7.80;99.90;;;;;;5032961;28;20549;-68
2022/11/17 03:32:31;;;;;;;6.63;5.47;;;7.70;99.90;;;;;;5033321;28;20045;-68
2022/11/17 03:35:12;;;;;;;10.82;6.00;;;7.70;99.90;;;;;;5033662;28;20052;-68
2022/11/17 03:37:42;;;;;;;9.13;6.13;;;7.60;99.90;;;;;;5033974;28;20045;-68
2022/11/17 03:40:11;;;;;;;8.00;5.88;;;7.60;99.90;;;;;;5033138;28;20061;-67
2022/11/17 03:42:41;;;;;;;7.95;5.72;;;7.60;99.90;;;;;;5033575;28;20049;-67
2022/11/17 03:45:15;;;;;;;7.40;5.70;;;7.60;99.90;;;;;;5033174;28;20419;-67
2022/11/17 03:47:42;;;;;;;7.45;5.53;;;7.60;99.90;;;;;;5033010;28;20481;-67
2022/11/17 03:50:17;;;;;;;9.60;6.05;;;7.60;99.90;;;;;;5032415;28;20489;-67
2022/11/17 03:52:44;;;;;;;8.88;5.15;;;7.60;99.90;;;;;;5031882;28;20410;-67
2022/11/17 03:55:10;;;;;;;7.80;5.80;;;7.60;99.90;;;;;;5032951;28;20037;-66
2022/11/17 03:57:42;;;;;;;7.25;5.10;;;7.60;99.90;;;;;;5033621;28;20053;-66
2022/11/17 04:00:15;;;;;;;7.97;5.47;;;7.50;99.90;;;;;;5033378;28;20389;-67
2022/11/17 04:02:42;;;;;;;7.40;5.45;;;7.50;99.90;;;;;;5033539;28;20049;-66
2022/11/17 04:05:09;;;;;;;10.05;5.70;;;7.50;99.90;;;;;;5031917;28;20085;-66
2022/11/17 04:07:43;;;;;;;7.30;5.32;;;7.50;99.90;;;;;;5032908;28;20060;-66
2022/11/17 04:10:14;;;;;;;7.80;5.72;;;7.80;99.90;;;;;;5032610;28;20485;-66
2022/11/17 04:18:09;;;;;;;7.80;5.50;;;7.60;99.90;;;;;;5052801;28;20053;-66
2022/11/17 04:20:35;;;;;;;6.45;5.10;;;7.50;99.90;;;;;;5052643;28;20405;-66
2022/11/17 04:23:05;;;;;;;7.25;5.03;;;7.40;99.90;;;;;;5052706;28;20052;-66
2022/11/17 04:28:37;;;;;;;6.43;4.75;;;7.40;99.90;;;;;;5052654;28;20136;-66
2022/11/17 04:31:17;;;;;;;7.05;5.28;;;7.30;99.90;;;;;;5053496;28;20049;-66
2022/11/17 04:33:48;;;;;;;8.73;5.72;;;7.30;99.90;;;;;;5055919;28;20049;-65
2022/11/17 04:36:18;;;;;;;7.20;4.72;;;7.20;99.90;;;;;;5056329;28;20049;-65
2022/11/17 04:38:46;;;;;;;7.38;5.18;;;7.30;99.90;;;;;;5038501;28;20045;-65
2022/11/17 04:44:00;;;;;;;7.40;4.75;;;7.20;99.90;;;;;;5034643;28;20520;-65
2022/11/17 04:46:27;;;;;;;6.57;4.82;;;7.20;99.90;;;;;;5056358;28;20045;-66
2022/11/17 04:48:54;;;;;;;6.68;4.95;;;7.10;99.90;;;;;;5056845;28;20049;-65
2022/11/17 04:51:21;;;;;;;6.22;4.65;;;7.10;99.90;;;;;;5038107;28;20045;-65
2022/11/17 04:53:47;;;;;;;5.82;4.30;;;7.20;99.90;;;;;;5056037;28;20090;-65
2022/11/17 04:56:12;;;;;;;7.18;5.13;;;7.10;99.90;;;;;;5055857;28;20135;-66
2022/11/17 04:58:39;;;;;;;5.97;4.75;;;7.00;99.90;;;;;;5055712;28;20045;-66
2022/11/17 05:01:15;;;;;;;6.65;4.68;;;7.00;99.90;;;;;;5055788;28;20052;-66
2022/11/17 05:03:45;;;;;;;7.55;5.38;;;7.40;99.90;;;;;;5055810;28;20057;-66
2022/11/17 05:06:15;;;;;;;6.50;4.68;;;7.00;99.90;;;;;;5055606;28;20449;-65
2022/11/17 05:08:41;;;;;;;6.82;4.60;;;7.00;99.90;;;;;;5056255;28;20049;-66
2022/11/17 05:13:53;;;;;;;6.72;4.90;;;7.00;99.90;;;;;;5055451;28;20123;-65
2022/11/17 05:19:05;;;;;;;6.85;4.80;;;6.90;99.90;;;;;;5055568;28;20053;-65
2022/11/17 05:21:31;;;;;;;6.75;5.00;;;7.00;99.90;;;;;;5056208;28;20105;-65
2022/11/17 05:23:57;;;;;;;7.32;4.72;;;6.90;99.90;;;;;;5055391;28;20490;-66
2022/11/17 05:26:28;;;;;;;6.10;4.43;;;6.90;99.90;;;;;;5055305;28;20057;-66
2022/11/17 05:28:55;;;;;;;6.78;5.00;;;6.90;99.90;;;;;;5055979;28;20044;-65
2022/11/17 05:31:22;;;;;;;6.68;4.43;;;7.50;99.90;;;;;;5055222;28;20084;-66
2022/11/17 05:33:48;;;;;;;6.43;4.43;;;6.90;99.90;;;;;;5054962;28;20496;-66
2022/11/17 05:36:14;;;;;;;5.82;4.80;;;6.90;99.90;;;;;;5055664;28;20051;-66
2022/11/17 05:38:40;;;;;;;6.28;4.38;;;6.90;99.90;;;;;;5055094;28;20052;-66
2022/11/17 05:41:06;;;;;;;7.30;5.03;;;6.80;99.90;;;;;;5054961;28;20499;-66
2022/11/17 05:43:32;;;;;;;6.55;4.78;;;6.90;99.90;;;;;;5054205;28;20041;-65
2022/11/17 05:45:58;;;;;;;7.30;5.07;;;6.80;99.90;;;;;;5054907;28;20045;-66
2022/11/17 05:48:23;;;;;;;6.25;4.63;;;6.80;99.90;;;;;;5055169;28;20389;-66
2022/11/17 05:50:53;;;;;;;6.30;4.50;;;7.10;99.90;;;;;;5055421;28;20057;-66
2022/11/17 05:53:20;;;;;;;5.90;3.88;;;6.80;99.90;;;;;;5055350;28;20052;-65
2022/11/17 05:55:45;;;;;;;5.30;4.35;;;6.80;99.90;;;;;;5055347;28;20432;-66
2022/11/17 05:58:27;;;;;;;6.22;4.53;;;7.30;99.90;;;;;;5054728;28;20040;-66
2022/11/17 06:00:54;;;;;;;6.13;4.15;;;7.10;99.90;;;;;;5055031;28;20174;-66
2022/11/17 06:03:32;;;;;;;6.18;4.60;;;6.70;99.90;;;;;;5054630;28;20113;-66
2022/11/17 06:05:58;;;;;;;5.22;3.83;;;6.70;99.90;;;;;;5055168;28;20115;-65
2022/11/17 06:08:25;;;;;;;6.68;3.92;;;6.70;99.90;;;;;;5055425;28;20430;-65
2022/11/17 06:10:51;;;;;;;5.25;4.10;;;6.70;99.90;;;;;;5054455;28;20053;-65
2022/11/17 06:13:18;;;;;;;5.20;3.80;;;6.70;99.90;;;;;;5054472;28;20110;-65
2022/11/17 06:15:44;;;;;;;7.55;4.78;;;6.70;99.90;;;;;;5054451;28;20057;-65
2022/11/17 06:18:16;;;;;;;5.75;4.20;;;6.70;99.90;;;;;;5054071;28;20071;-65
2022/11/17 06:20:47;;;;;;;5.85;4.20;;;6.80;99.90;;;;;;5054269;28;20501;-65
2022/11/17 06:23:14;;;;;;;5.93;4.07;;;6.60;99.90;;;;;;5054277;28;20128;-65
2022/11/17 06:25:40;;;;;;;4.78;3.40;;;6.60;99.90;;;;;;5054705;28;20052;-65
2022/11/17 06:28:11;;;;;;;6.00;4.07;;;6.70;99.90;;;;;;5054199;28;20132;-65
2022/11/17 06:30:38;;;;;;;5.32;3.78;;;6.60;99.90;;;;;;5036510;28;20041;-65
2022/11/17 06:33:07;;;;;;;5.07;4.30;;;6.60;99.90;;;;;;5037021;28;20520;-66
2022/11/17 06:35:34;;;;;;;5.35;3.75;;;6.60;99.90;;;;;;5036182;28;20481;-66
2022/11/17 06:38:01;;;;;;;5.53;3.70;;;7.20;99.90;;;;;;5053970;28;20051;-65
2022/11/17 06:40:27;;;;;;;5.60;4.00;;;6.60;99.90;;;;;;5054157;28;20047;-65
2022/11/17 06:43:02;;;;;;;5.82;4.13;;;6.80;99.90;;;;;;5053923;28;20482;-65
2022/11/17 06:45:32;;;;;;;6.20;3.90;;;6.60;99.90;;;;;;5054433;28;20394;-65
2022/11/17 06:47:58;;;;;;;5.65;4.13;;;6.60;99.90;;;;;;5036742;28;20093;-66
2022/11/17 06:50:24;;;;;;;5.55;4.22;;;6.60;99.90;;;;;;5053829;28;20083;-65
2022/11/17 06:52:50;;;;;;;6.38;4.53;;;6.60;99.90;;;;;;5053660;28;20045;-65
2022/11/17 06:55:15;;;;;;;5.28;3.88;;;6.60;99.90;;;;;;5053379;28;20044;-65
2022/11/17 06:57:41;;;;;;;4.65;3.38;;;6.60;99.90;;;;;;5054385;28;20086;-65
2022/11/17 07:00:08;;;;;;;6.50;3.72;;;6.60;99.90;;;;;;5053942;28;20432;-65
2022/11/17 07:02:35;;;;;;;5.45;3.70;;;6.60;99.90;;;;;;5053356;28;20173;-65
2022/11/17 07:05:01;;;;;;;4.97;3.25;;;6.70;99.90;;;;;;5053574;28;20041;-66
2022/11/17 07:07:26;;;;;;;5.05;3.45;;;6.60;99.90;;;;;;5054070;28;20369;-66
2022/11/17 07:09:52;;;;;;;4.68;3.25;;;6.60;99.90;;;;;;5035911;28;20386;-65
2022/11/17 07:12:18;;;;;;;4.13;3.25;;;6.60;99.90;;;;;;5035497;28;20486;-66
2022/11/17 07:14:43;;;;;;;5.13;3.47;;;6.60;99.90;;;;;;5053149;28;20067;-63
2022/11/17 07:17:09;;;;;;;3.80;3.20;;;6.70;99.90;;;;;;5053822;28;20053;-63
2022/11/17 07:19:35;;;;;;;4.55;3.50;;;6.60;99.90;;;;;;5053863;28;20037;-63
2022/11/17 07:22:02;;;;;;;3.97;3.10;;;6.60;99.90;;;;;;5035497;28;20045;-63
2022/11/17 07:24:27;;;;;;;4.53;3.40;;;6.60;99.90;;;;;;5053483;28;20059;-63
2022/11/17 07:26:53;;;;;;;3.97;2.83;;;6.60;99.90;;;;;;5052884;28;20509;-63
2022/11/17 07:29:19;;;;;;;5.35;3.53;;;6.60;99.90;;;;;;5053299;28;20048;-63
2022/11/17 07:31:44;;;;;;;4.80;3.25;;;6.60;99.90;;;;;;5052405;28;20079;-63
2022/11/17 07:34:10;;;;;;;3.78;3.05;;;6.70;99.90;;;;;;5052606;28;20095;-63
2022/11/17 07:36:36;;;;;;;4.22;3.00;;;6.70;99.90;;;;;;5035180;28;20094;-63
2022/11/17 07:39:03;;;;;;;4.20;2.67;;;6.60;99.90;;;;;;5052992;28;20127;-63
2022/11/17 07:41:28;;;;;;;3.92;3.05;;;6.70;99.90;;;;;;5052636;28;20552;-63
2022/11/17 07:43:54;;;;;;;4.13;3.20;;;6.60;99.90;;;;;;5052998;28;20128;-63
2022/11/17 07:46:20;;;;;;;5.03;3.45;;;6.60;99.90;;;;;;5052484;28;20199;-63
2022/11/17 07:48:45;;;;;;;4.13;3.00;;;6.80;99.90;;;;;;5034713;28;20045;-63
2022/11/17 07:51:12;;;;;;;4.60;3.22;;;6.70;99.90;;;;;;5035189;28;20045;-63
2022/11/17 07:53:38;;;;;;;4.75;3.40;;;6.70;99.90;;;;;;5052363;28;20064;-63
2022/11/17 07:56:06;;;;;;;4.32;3.15;;;6.80;99.90;;;;;;5052341;28;20049;-63
2022/11/17 07:58:32;;;;;;;4.47;3.22;;;6.70;99.90;;;;;;5052821;28;20049;-62
2022/11/17 08:00:57;;;;;;;5.05;3.85;;;6.70;99.90;;;;;;5052738;28;20055;-63
2022/11/17 08:03:23;;;;;;;5.20;3.60;;;6.70;99.90;;;;;;5052838;28;20048;-63
2022/11/17 08:05:49;;;;;;;4.40;3.50;;;6.70;99.90;;;;;;5035601;28;20485;-63
2022/11/17 08:08:15;;;;;;;4.72;3.78;;;6.60;99.90;;;;;;5056130;28;20049;-63
2022/11/17 08:10:41;;;;;;;4.40;3.80;;;6.70;99.90;;;;;;5056721;28;20090;-63
2022/11/17 08:13:08;;;;;;;5.20;3.97;;;6.70;99.90;;;;;;5056816;28;20052;-63
2022/11/17 08:15:34;;;;;;;5.03;3.83;;;6.70;99.90;;;;;;5056743;28;20057;-63
2022/11/17 08:18:01;;;;;;;5.53;3.60;;;6.70;99.90;;;;;;5056695;28;20075;-66
2022/11/17 08:20:28;;;;;;;5.18;3.58;;;6.70;99.90;;;;;;5055570;28;20041;-69
2022/11/17 08:22:54;;;;;;;5.57;3.65;;;6.70;99.90;;;;;;5056249;28;20101;-68
2022/11/17 08:25:22;;;;;;;5.07;3.65;;;6.70;99.90;;;;;;5056447;28;20094;-65
2022/11/17 08:27:50;;;;;;;5.40;3.78;;;7.20;99.90;;;;;;5056027;28;20048;-66
2022/11/17 08:30:19;;;;;;;4.63;3.58;;;6.70;99.90;;;;;;5056338;28;20052;-66
2022/11/17 08:32:47;;;;;;;5.25;3.60;;;6.70;99.90;;;;;;5056822;28;20067;-65
2022/11/17 08:35:13;;;;;;;4.82;3.67;;;6.70;99.90;;;;;;5056374;28;20155;-66
2022/11/17 08:37:40;;;;;;;7.35;3.70;;;6.70;99.90;;;;;;5038429;28;20059;-66
2022/11/17 08:40:06;;;;;;;4.28;3.50;;;6.70;99.90;;;;;;5055943;28;20044;-66
2022/11/17 08:42:32;;;;;;;4.38;3.40;;;6.70;99.90;;;;;;5038390;28;20424;-66
2022/11/17 08:44:58;;;;;;;4.95;3.83;;;6.70;99.90;;;;;;5056557;28;20041;-66
2022/11/17 08:47:23;;;;;;;5.38;3.67;;;6.70;99.90;;;;;;5038632;28;20053;-66
2022/11/17 08:49:49;;;;;;;5.22;4.00;;;6.70;99.90;;;;;;5055772;28;20103;-66
2022/11/17 08:52:15;;;;;;;5.80;4.15;;;6.70;99.90;;;;;;5055820;28;20044;-66
2022/11/17 08:54:40;;;;;;;4.80;3.28;;;6.70;99.90;;;;;;5055800;28;20091;-67
2022/11/17 08:57:06;;;;;;;5.35;3.55;;;6.70;99.90;;;;;;5056173;28;20432;-66
2022/11/17 08:59:31;;;;;;;4.22;3.15;;;6.70;99.90;;;;;;5055849;28;20124;-65
2022/11/17 09:01:57;;;;;;;4.10;2.88;;;6.60;99.90;;;;;;5055796;28;20111;-66
2022/11/17 09:04:23;;;;;;;5.70;3.33;;;6.90;99.90;;;;;;5055575;28;20048;-66
2022/11/17 09:06:48;;;;;;;4.40;2.95;;;6.60;99.90;;;;;;5055385;28;20143;-66
2022/11/17 09:09:14;;;;;;;4.50;3.00;;;6.60;99.90;;;;;;5055315;28;20090;-66
2022/11/17 09:11:40;;;;;;;4.00;2.92;;;6.60;99.90;;;;;;5055507;28;20048;-66
2022/11/17 09:14:06;;;;;;;4.15;3.08;;;6.60;99.90;;;;;;5055751;28;20124;-65
2022/11/17 09:16:32;;;;;;;5.25;2.85;;;6.70;99.90;;;;;;5055545;28;20053;-65
2022/11/17 09:18:57;;;;;;;4.13;2.72;;;6.70;99.90;;;;;;5054036;28;20404;-66
2022/11/17 09:21:25;;;;;;;4.60;2.75;;;6.60;99.90;;;;;;5055952;28;20041;-66
2022/11/17 09:23:51;;;;;;;4.88;3.40;;;6.80;99.90;;;;;;5055411;28;20049;-66
2022/11/17 09:26:17;;;;;;;3.55;2.65;;;6.70;99.90;;;;;;5056089;28;20052;-66
2022/11/17 09:28:43;;;;;;;3.30;2.60;;;6.70;99.90;;;;;;5055284;28;20045;-66
2022/11/17 09:31:11;;;;;;;4.25;2.83;;;6.70;99.90;;;;;;5054950;28;20478;-65
2022/11/17 09:33:37;;;;;;;4.00;2.97;;;6.80;99.90;;;;;;5055962;28;20128;-68
2022/11/17 09:36:06;;;;;;;3.85;2.85;;;6.80;99.90;;;;;;5054777;28;20132;-66
2022/11/17 09:38:31;;;;;;;3.70;2.95;;;6.80;99.90;;;;;;5038028;28;20063;-66
2022/11/17 09:40:58;;;;;;;3.75;2.67;;;6.80;99.90;;;;;;5055223;28;20473;-66
2022/11/17 09:43:27;;;;;;;3.90;2.60;;;6.80;99.90;;;;;;5055065;28;20049;-66
2022/11/17 09:46:04;;;;;;;3.55;2.53;;;6.80;99.90;;;;;;5054775;28;20470;-66
2022/11/17 09:48:46;;;;;;;4.15;2.35;;;6.80;99.90;;;;;;5054680;28;20401;-66
2022/11/17 09:51:15;;;;;;;3.42;2.35;;;6.80;99.90;;;;;;5054970;28;20051;-66
2022/11/17 09:53:52;;;;;;;3.67;2.85;;;6.80;99.90;;;;;;5055208;28;20049;-66
2022/11/17 09:56:19;;;;;;;3.85;2.50;;;6.80;99.90;;;;;;5055434;28;20461;-66
2022/11/17 09:58:57;;;;;;;3.03;2.30;;;6.80;99.90;;;;;;5054511;28;20463;-66
2022/11/17 10:01:27;;;;;;;3.38;2.63;;;6.80;99.90;;;;;;5054295;28;20492;-66
2022/11/17 10:03:55;;;;;;;2.95;2.28;;;6.80;99.90;;;;;;5036945;28;20056;-66
2022/11/17 10:06:27;;;;;;;3.60;2.65;;;6.80;99.90;;;;;;5054532;28;20041;-66
2022/11/17 10:09:19;;;;;;;3.80;2.90;;;6.80;99.90;;;;;;5054343;28;20049;-66
2022/11/17 10:11:46;;;;;;;4.18;2.95;;;6.80;99.90;;;;;;5054736;28;20049;-65
2022/11/17 10:14:17;;;;;;;4.88;3.05;;;6.80;99.90;;;;;;5054065;28;20072;-66
2022/11/17 10:16:49;;;;;;;3.83;2.60;;;6.80;99.90;;;;;;5054206;28;20481;-66
2022/11/17 10:19:21;;;;;;;3.42;2.40;;;6.80;99.90;;;;;;5054747;28;20049;-66
2022/11/17 10:21:51;;;;;;;2.97;2.20;;;6.90;99.90;;;;;;5054116;28;20081;-66
2022/11/17 10:24:37;;;;;;;3.55;2.60;;;6.80;99.90;;;;;;5054530;28;20053;-66
2022/11/17 10:27:05;;;;;;;3.95;2.67;;;6.90;99.90;;;;;;5054075;28;20052;-65
2022/11/17 10:29:31;;;;;;;3.20;2.40;;;6.80;99.90;;;;;;5052918;28;20509;-66
2022/11/17 10:31:58;;;;;;;3.50;2.22;;;6.80;99.90;;;;;;5053540;28;20213;-66
2022/11/17 10:34:36;;;;;;;3.47;2.63;;;6.90;99.90;;;;;;5054278;28;20045;-66
2022/11/17 10:37:24;;;;;;;2.92;2.13;;;7.10;99.90;;;;;;5036492;28;20124;-66
2022/11/17 10:40:06;;;;;;;3.28;2.17;;;6.90;99.90;;;;;;5053518;28;20096;-66
2022/11/17 10:42:31;;;;;;;2.80;2.30;;;6.90;99.90;;;;;;5053629;28;20057;-66
2022/11/17 10:45:00;;;;;;;3.42;2.17;;;6.90;99.90;;;;;;5054061;28;20052;-66
2022/11/17 10:47:27;;;;;;;3.65;2.40;;;6.90;99.90;;;;;;5053869;28;20091;-66
2022/11/17 10:50:21;;;;;;;3.22;2.30;;;6.90;99.90;;;;;;5054108;28;20390;-66
2022/11/17 10:52:48;;;;;;;3.60;2.55;;;6.90;99.90;;;;;;5053994;28;20056;-65
2022/11/17 10:55:32;;;;;;;3.33;2.38;;;7.10;99.90;;;;;;5053973;28;20092;-66
2022/11/17 10:58:10;;;;;;;3.10;2.30;;;6.90;99.90;;;;;;5053901;28;20110;-66
2022/11/17 11:00:36;;;;;;;2.95;2.13;;;7.00;99.90;;;;;;5053891;28;20382;-67
2022/11/17 11:03:20;;;;;;;3.22;2.13;;;7.00;99.90;;;;;;5035666;28;20060;-68
2022/11/17 11:06:04;;;;;;;3.10;2.38;;;7.00;99.90;;;;;;5053305;28;20089;-68
2022/11/17 11:08:57;;;;;;;3.10;2.10;;;7.00;99.90;;;;;;5053283;28;20101;-68
2022/11/17 11:11:40;;;;;;;2.88;2.30;;;7.00;99.90;;;;;;5035608;28;20057;-68
2022/11/17 11:14:36;;;;;;;2.83;2.15;;;7.00;99.90;;;;;;5035287;28;20040;-67
2022/11/17 11:17:14;;;;;;;2.85;2.13;;;7.00;99.90;;;;;;5053220;28;20460;-67
2022/11/17 11:20:11;;;;;;;3.33;2.30;;;7.10;99.90;;;;;;5035340;28;20059;-67
2022/11/17 11:22:51;;;;;;;2.95;2.17;;;7.10;99.90;;;;;;5051945;28;20107;-67
2022/11/17 11:25:35;;;;;;;3.58;2.40;;;7.40;99.90;;;;;;5053188;28;20088;-67
2022/11/17 11:28:04;;;;;;;3.10;2.40;;;7.10;99.90;;;;;;5053549;28;20142;-67
2022/11/17 11:30:36;;;;;;;3.85;2.47;;;7.20;99.90;;;;;;5052712;28;20053;-67
2022/11/17 11:33:26;;;;;;;3.67;2.40;;;7.20;99.90;;;;;;5036222;28;20416;-67
2022/11/17 11:36:14;;;;;;;3.53;2.30;;;7.20;99.90;;;;;;5035530;28;20202;-68
2022/11/17 11:38:58;;;;;;;2.83;2.30;;;7.20;99.90;;;;;;5053504;28;20041;-65
2022/11/17 11:41:34;;;;;;;3.25;2.20;;;7.20;99.90;;;;;;5052345;28;20405;-64
2022/11/17 11:44:18;;;;;;;2.70;2.20;;;7.30;99.90;;;;;;5053657;28;20048;-64
2022/11/17 11:47:08;;;;;;;2.88;2.15;;;7.30;99.90;;;;;;5053871;28;20128;-64
2022/11/17 11:49:51;;;;;;;3.33;2.53;;;7.30;99.90;;;;;;5053054;28;20048;-64
2022/11/17 11:52:24;;;;;;;4.18;2.45;;;7.30;99.90;;;;;;5053638;28;20092;-65
2022/11/17 11:54:55;;;;;;;3.30;2.35;;;7.30;99.90;;;;;;5052933;28;20128;-64
2022/11/17 11:57:32;;;;;;;3.30;2.50;;;7.30;99.90;;;;;;5053629;28;20087;-65
2022/11/17 12:00:03;;;;;;;3.60;2.40;;;7.30;99.90;;;;;;5052710;28;20053;-64
2022/11/17 12:02:53;;;;;;;5.07;2.38;;;7.40;99.90;;;;;;5053028;28;20056;-64
2022/11/17 12:05:31;;;;;;;3.15;2.30;;;7.50;99.90;;;;;;5053132;28;20476;-64
2022/11/17 12:08:16;;;;;;;3.47;2.33;;;7.50;99.90;;;;;;5052465;28;20041;-64
2022/11/17 12:10:52;;;;;;;3.45;2.40;;;7.50;99.90;;;;;;5053302;28;20124;-65
2022/11/17 12:13:20;;;;;;;3.55;2.33;;;7.50;99.90;;;;;;5052971;28;20057;-67
2022/11/17 12:15:46;;;;;;;3.30;2.28;;;7.60;99.90;;;;;;5034682;28;20416;-67
2022/11/17 12:18:18;;;;;;;2.60;2.08;;;7.60;99.90;;;;;;5053259;28;20128;-67
2022/11/17 12:21:03;;;;;;;3.53;2.05;;;7.60;99.90;;;;;;5052962;28;20045;-68
2022/11/17 12:23:31;;;;;;;3.30;2.33;;;7.70;99.90;;;;;;5052689;28;20041;-68
2022/11/17 12:25:59;;;;;;;2.78;2.10;;;7.70;99.90;;;;;;5053460;28;20045;-65
2022/11/17 12:28:36;;;;;;;3.83;2.50;;;7.70;99.90;;;;;;5034804;28;20052;-65
2022/11/17 12:31:08;;;;;;;3.13;2.30;;;7.80;99.90;;;;;;5052989;28;20048;-65
2022/11/17 12:33:51;;;;;;;3.25;2.42;;;7.80;99.90;;;;;;5052786;28;20371;-65
2022/11/17 12:36:23;;;;;;;3.10;2.42;;;7.90;99.90;;;;;;5052482;28;20048;-65
2022/11/17 12:38:50;;;;;;;3.03;2.40;;;7.90;99.90;;;;;;5052466;28;20049;-65
2022/11/17 12:41:47;;;;;;;3.97;2.10;;;7.90;99.90;;;;;;5052973;28;20051;-65
2022/11/17 12:44:31;;;;;;;3.55;2.45;;;7.90;99.90;;;;;;5052473;28;20045;-65
2022/11/17 12:47:37;;;;;;;3.25;2.30;;;8.00;99.90;;;;;;5052351;28;20045;-65
2022/11/17 12:50:17;;;;;;;3.40;2.30;;;8.00;99.90;;;;;;5025175;28;20052;-65
2022/11/17 12:52:55;;;;;;;3.95;2.70;;;8.00;99.90;;;;;;5052944;28;20052;-65
2022/11/17 12:55:33;;;;;;;2.67;2.17;;;8.00;99.90;;;;;;5056486;28;20051;-65
2022/11/17 12:58:20;;;;;;;2.97;2.22;;;8.00;99.90;;;;;;5055930;28;20056;-65
2022/11/17 13:01:04;;;;;;;3.50;2.30;;;8.10;99.90;;;;;;5056820;28;20376;-65
2022/11/17 13:03:32;;;;;;;2.90;2.00;;;8.10;99.90;;;;;;5056222;28;20052;-65
2022/11/17 13:06:16;;;;;;;3.05;2.30;;;8.10;99.90;;;;;;5056438;28;20484;-65
2022/11/17 13:08:59;;;;;;;3.50;2.42;;;8.10;99.90;;;;;;5056436;28;20051;-65
2022/11/17 13:11:25;;;;;;;3.92;2.50;;;8.20;99.90;;;;;;5055654;28;20084;-65
2022/11/17 13:14:07;;;;;;;3.08;2.20;;;8.10;99.90;;;;;;5055663;28;20049;-65
2022/11/17 13:16:35;;;;;;;3.55;2.50;;;8.20;99.90;;;;;;5037908;28;20060;-65
2022/11/17 13:19:00;;;;;;;2.95;2.30;;;8.20;99.90;;;;;;5055537;28;20100;-65
2022/11/17 13:21:31;;;;;;;3.13;2.35;;;8.20;99.90;;;;;;5037975;28;20045;-66
2022/11/17 13:23:59;;;;;;;3.28;2.28;;;8.20;99.90;;;;;;5055483;28;20049;-65
2022/11/17 13:26:25;;;;;;;4.03;2.45;;;8.20;99.90;;;;;;5037986;28;20041;-65
2022/11/17 13:29:12;;;;;;;3.28;2.30;;;8.20;99.90;;;;;;5055376;28;20048;-65
2022/11/17 13:31:38;;;;;;;;;;;8.20;99.90;;;;;;5055758;28;20132;-65
2022/11/17 13:34:12;;;;;;;3.13;2.30;;;8.10;99.90;;;;;;5055043;28;19967;-65
2022/11/17 13:36:59;;;;;;;3.53;2.63;;;8.20;99.90;;;;;;5055120;28;20136;-65
2022/11/17 13:39:26;;;;;;;3.72;2.50;;;8.20;99.90;;;;;;5055613;28;20063;-65
2022/11/17 13:41:52;;;;;;;4.15;2.78;;;9.00;99.90;;;;;;5054746;28;20512;-65
2022/11/17 13:44:23;;;;;;;4.07;2.67;;;8.20;99.90;;;;;;5055640;28;20132;-65